PWSweather.com
Personal Weather Stations
Station Observations
UWIDEPER1
Brown County, Depere, WI 54115

Brown CountyDepere, WI 54115

Lat: 44.44, Lon: -88.05

Elevation: 610

Station Type: Acurite 5in1

www.depereweather.com

High Low Average
Temperature 46.9°F8.3°F 42.4°F5.8°F 44.4°F6.9°F
Dew Point 46.4°F8.0°F 41.9°F5.5°F 43.7°F6.5°F
Winds 10.4 mph -16.7 mph - 2.3 mph 3.7 mph 4.7 mph 7.6 mph
Wind Gusts 15.0 mph24.1 mph 2.3 mph3.7 mph 5.9 mph9.5 mph
Humidity 98% 95% 97%
Pressure 29.80 in1009.10 in 29.55 in1000.70 in -
Precipitation 8.20 in208.30 in - -
Hour Temp Dew Point Humidity Winds Wind Gusts Pressure Precip Precip Rate Daily Precip Total
12:00 AM 45.0°F7.2°C 44.4°F6.9°C 98% 4.6 mph NNE7.4 kmh NNE 6.9 mph11.1 kmh 29.80 in1009.1 mb - 0.00 in0.0 mm 0.00 in0.0 mm
12:10 AM 45.0°F7.2°C 44.4°F6.9°C 98% 6.9 mph E11.1 kmh E 3.5 mph5.6 kmh 29.80 in1009.1 mb - 0.01 in0.3 mm 0.01 in0.3 mm
12:15 AM 44.8°F7.1°C 44.3°F6.8°C 98% 6.9 mph NNE11.1 kmh NNE 4.6 mph7.4 kmh 29.80 in1009.1 mb - 0.01 in0.3 mm 0.01 in0.3 mm
12:20 AM 44.6°F7.0°C 44.1°F6.7°C 98% 4.6 mph NNE7.4 kmh NNE 4.6 mph7.4 kmh 29.80 in1009.1 mb - 0.01 in0.3 mm 0.01 in0.3 mm
12:25 AM 44.4°F6.9°C 43.9°F6.6°C 98% 4.6 mph WNW7.4 kmh WNW 3.5 mph5.6 kmh 29.80 in1009.1 mb - 0.01 in0.3 mm 0.01 in0.3 mm
12:30 AM 44.2°F6.8°C 43.7°F6.5°C 98% 3.5 mph NNE5.6 kmh NNE 4.6 mph7.4 kmh 29.79 in1008.8 mb - 0.02 in0.5 mm 0.02 in0.5 mm
12:35 AM 44.2°F6.8°C 43.7°F6.5°C 98% 2.3 mph NNE3.7 kmh NNE 5.8 mph9.3 kmh 29.80 in1009.1 mb - 0.03 in0.8 mm 0.03 in0.8 mm
12:40 AM 44.1°F6.7°C 43.6°F6.4°C 98% 4.6 mph N7.4 kmh N 6.9 mph11.1 kmh 29.79 in1008.8 mb - 0.06 in1.5 mm 0.06 in1.5 mm
12:45 AM 43.9°F6.6°C 43.4°F6.3°C 98% 5.8 mph NE9.3 kmh NE 6.9 mph11.1 kmh 29.78 in1008.5 mb - 0.06 in1.5 mm 0.06 in1.5 mm
12:50 AM 43.9°F6.6°C 43.4°F6.3°C 98% 4.6 mph NE7.4 kmh NE 4.6 mph7.4 kmh 29.78 in1008.5 mb - 0.06 in1.5 mm 0.06 in1.5 mm
12:55 AM 43.7°F6.5°C 43.1°F6.2°C 98% 4.6 mph NNE7.4 kmh NNE 6.9 mph11.1 kmh 29.79 in1008.8 mb - 0.06 in1.5 mm 0.06 in1.5 mm
01:00 AM 43.5°F6.4°C 43.0°F6.1°C 98% 4.6 mph NNE7.4 kmh NNE 5.8 mph9.3 kmh 29.79 in1008.8 mb - 0.06 in1.5 mm 0.06 in1.5 mm
01:10 AM 43.5°F6.4°C 43.0°F6.1°C 98% 4.6 mph NNE7.4 kmh NNE 4.6 mph7.4 kmh 29.78 in1008.5 mb - 0.05 in1.3 mm 0.06 in1.5 mm
01:15 AM 43.5°F6.4°C 43.0°F6.1°C 98% 4.6 mph ENE7.4 kmh ENE 5.8 mph9.3 kmh 29.78 in1008.5 mb - 0.05 in1.3 mm 0.06 in1.5 mm
01:20 AM 43.3°F6.3°C 42.8°F6.0°C 98% 4.6 mph NNE7.4 kmh NNE 4.6 mph7.4 kmh 29.78 in1008.5 mb - 0.05 in1.3 mm 0.06 in1.5 mm
01:25 AM 43.3°F6.3°C 42.8°F6.0°C 98% 3.5 mph NNE5.6 kmh NNE 5.8 mph9.3 kmh 29.78 in1008.5 mb - 0.05 in1.3 mm 0.06 in1.5 mm
01:30 AM 43.3°F6.3°C 42.8°F6.0°C 98% 4.6 mph NNE7.4 kmh NNE 4.6 mph7.4 kmh 29.78 in1008.5 mb - 0.05 in1.3 mm 0.06 in1.5 mm
01:35 AM 43.3°F6.3°C 42.5°F5.8°C 97% 5.8 mph NNE9.3 kmh NNE 9.2 mph14.8 kmh 29.77 in1008.1 mb - 0.03 in0.8 mm 0.06 in1.5 mm
01:40 AM 43.3°F6.3°C 42.3°F5.7°C 96% 4.6 mph NE7.4 kmh NE 3.5 mph5.6 kmh 29.78 in1008.5 mb - 0.01 in0.3 mm 0.06 in1.5 mm
01:45 AM 43.3°F6.3°C 42.3°F5.7°C 96% 4.6 mph NE7.4 kmh NE 3.5 mph5.6 kmh 29.77 in1008.1 mb - 0.00 in0.0 mm 0.06 in1.5 mm
01:50 AM 43.3°F6.3°C 42.3°F5.7°C 96% 4.6 mph NNW7.4 kmh NNW 6.9 mph11.1 kmh 29.78 in1008.5 mb - 0.00 in0.0 mm 0.06 in1.5 mm
01:55 AM 43.3°F6.3°C 42.3°F5.7°C 96% 4.6 mph NE7.4 kmh NE 6.9 mph11.1 kmh 29.78 in1008.5 mb - 0.00 in0.0 mm 0.06 in1.5 mm
02:00 AM 43.2°F6.2°C 42.1°F5.6°C 96% 5.8 mph N9.3 kmh N 9.2 mph14.8 kmh 29.77 in1008.1 mb - 0.00 in0.0 mm 0.06 in1.5 mm
02:10 AM 43.2°F6.2°C 42.1°F5.6°C 96% 3.5 mph ENE5.6 kmh ENE 3.5 mph5.6 kmh 29.78 in1008.5 mb - 0.00 in0.0 mm 0.06 in1.5 mm
02:15 AM 43.2°F6.2°C 42.1°F5.6°C 96% 3.5 mph E5.6 kmh E 8.1 mph13.0 kmh 29.78 in1008.5 mb - 0.00 in0.0 mm 0.06 in1.5 mm
02:20 AM 43.2°F6.2°C 42.1°F5.6°C 96% 3.5 mph NNE5.6 kmh NNE 3.5 mph5.6 kmh 29.78 in1008.5 mb - 0.00 in0.0 mm 0.06 in1.5 mm
02:25 AM 43.2°F6.2°C 42.1°F5.6°C 96% 4.6 mph NE7.4 kmh NE 4.6 mph7.4 kmh 29.78 in1008.5 mb - 0.00 in0.0 mm 0.06 in1.5 mm
02:30 AM 43.2°F6.2°C 42.1°F5.6°C 96% 3.5 mph ENE5.6 kmh ENE 8.1 mph13.0 kmh 29.77 in1008.1 mb - 0.00 in0.0 mm 0.06 in1.5 mm
02:35 AM 43.2°F6.2°C 42.1°F5.6°C 96% 3.5 mph NNE5.6 kmh NNE 3.5 mph5.6 kmh 29.76 in1007.8 mb - 0.00 in0.0 mm 0.06 in1.5 mm
02:40 AM 43.2°F6.2°C 42.1°F5.6°C 96% 4.6 mph NNE7.4 kmh NNE 5.8 mph9.3 kmh 29.76 in1007.8 mb - 0.00 in0.0 mm 0.06 in1.5 mm
02:45 AM 43.2°F6.2°C 42.1°F5.6°C 96% 4.6 mph ENE7.4 kmh ENE 3.5 mph5.6 kmh 29.75 in1007.5 mb - 0.00 in0.0 mm 0.06 in1.5 mm
02:50 AM 43.2°F6.2°C 42.1°F5.6°C 96% 3.5 mph NNE5.6 kmh NNE 6.9 mph11.1 kmh 29.76 in1007.8 mb - 0.00 in0.0 mm 0.06 in1.5 mm
02:55 AM 43.2°F6.2°C 42.1°F5.6°C 96% 5.8 mph N9.3 kmh N 6.9 mph11.1 kmh 29.75 in1007.5 mb - 0.00 in0.0 mm 0.06 in1.5 mm
03:00 AM 43.2°F6.2°C 42.1°F5.6°C 96% 4.6 mph N7.4 kmh N 8.1 mph13.0 kmh 29.75 in1007.5 mb - 0.00 in0.0 mm 0.06 in1.5 mm
03:10 AM 43.2°F6.2°C 42.1°F5.6°C 96% 6.9 mph NNE11.1 kmh NNE 11.5 mph18.5 kmh 29.75 in1007.5 mb - 0.00 in0.0 mm 0.06 in1.5 mm
03:15 AM 43.2°F6.2°C 42.1°F5.6°C 96% 4.6 mph N7.4 kmh N 3.5 mph5.6 kmh 29.74 in1007.1 mb - 0.00 in0.0 mm 0.06 in1.5 mm
03:20 AM 43.2°F6.2°C 42.1°F5.6°C 96% 4.6 mph N7.4 kmh N 5.8 mph9.3 kmh 29.73 in1006.8 mb - 0.00 in0.0 mm 0.06 in1.5 mm
03:25 AM 43.2°F6.2°C 42.1°F5.6°C 96% 5.8 mph NE9.3 kmh NE 10.4 mph16.7 kmh 29.73 in1006.8 mb - 0.00 in0.0 mm 0.06 in1.5 mm
03:30 AM 43.2°F6.2°C 42.1°F5.6°C 96% 6.9 mph NE11.1 kmh NE 10.4 mph16.7 kmh 29.73 in1006.8 mb - 0.00 in0.0 mm 0.06 in1.5 mm
03:35 AM 43.2°F6.2°C 42.1°F5.6°C 96% 5.8 mph N9.3 kmh N 5.8 mph9.3 kmh 29.73 in1006.8 mb - 0.00 in0.0 mm 0.06 in1.5 mm
03:40 AM 43.2°F6.2°C 42.1°F5.6°C 96% 4.6 mph NE7.4 kmh NE 9.2 mph14.8 kmh 29.73 in1006.8 mb - 0.00 in0.0 mm 0.06 in1.5 mm
03:45 AM 43.2°F6.2°C 42.1°F5.6°C 96% 6.9 mph ENE11.1 kmh ENE 10.4 mph16.7 kmh 29.73 in1006.8 mb - 0.00 in0.0 mm 0.06 in1.5 mm
03:50 AM 43.2°F6.2°C 42.1°F5.6°C 96% 6.9 mph N11.1 kmh N 9.2 mph14.8 kmh 29.72 in1006.4 mb - 0.00 in0.0 mm 0.06 in1.5 mm
03:55 AM 43.2°F6.2°C 42.1°F5.6°C 96% 5.8 mph NE9.3 kmh NE 9.2 mph14.8 kmh 29.72 in1006.4 mb - 0.00 in0.0 mm 0.06 in1.5 mm
04:00 AM 43.2°F6.2°C 42.1°F5.6°C 96% 6.9 mph N11.1 kmh N 6.9 mph11.1 kmh 29.72 in1006.4 mb - 0.00 in0.0 mm 0.06 in1.5 mm
04:10 AM 43.2°F6.2°C 42.1°F5.6°C 96% 4.6 mph NNE7.4 kmh NNE 6.9 mph11.1 kmh 29.72 in1006.4 mb - 0.00 in0.0 mm 0.06 in1.5 mm
04:15 AM 43.2°F6.2°C 42.1°F5.6°C 96% 6.9 mph NNE11.1 kmh NNE 11.5 mph18.5 kmh 29.71 in1006.1 mb - 0.00 in0.0 mm 0.06 in1.5 mm
04:20 AM 43.2°F6.2°C 42.1°F5.6°C 96% 8.1 mph NNE13.0 kmh NNE 5.8 mph9.3 kmh 29.70 in1005.8 mb - 0.01 in0.3 mm 0.07 in1.8 mm
04:25 AM 43.2°F6.2°C 42.1°F5.6°C 96% 5.8 mph N9.3 kmh N 5.8 mph9.3 kmh 29.71 in1006.1 mb - 0.01 in0.3 mm 0.07 in1.8 mm
04:30 AM 43.0°F6.1°C 41.9°F5.5°C 96% 3.5 mph NE5.6 kmh NE 4.6 mph7.4 kmh 29.71 in1006.1 mb - 0.04 in1.0 mm 0.10 in2.5 mm
04:35 AM 43.0°F6.1°C 41.9°F5.5°C 96% 6.9 mph N11.1 kmh N 10.4 mph16.7 kmh 29.71 in1006.1 mb - 0.07 in1.8 mm 0.13 in3.3 mm
04:40 AM 42.6°F5.9°C 42.1°F5.6°C 98% 6.9 mph ENE11.1 kmh ENE 11.5 mph18.5 kmh 29.71 in1006.1 mb - 0.09 in2.3 mm 0.15 in3.8 mm
04:45 AM 42.6°F5.9°C 42.1°F5.6°C 98% 4.6 mph NNE7.4 kmh NNE 5.8 mph9.3 kmh 29.70 in1005.8 mb - 0.14 in3.6 mm 0.20 in5.1 mm
04:50 AM 42.4°F5.8°C 41.9°F5.5°C 98% 6.9 mph NE11.1 kmh NE 4.6 mph7.4 kmh 29.70 in1005.8 mb - 0.17 in4.3 mm 0.23 in5.8 mm
04:55 AM 42.4°F5.8°C 41.9°F5.5°C 98% 3.5 mph ENE5.6 kmh ENE 5.8 mph9.3 kmh 29.70 in1005.8 mb - 0.20 in5.1 mm 0.26 in6.6 mm
05:00 AM 42.4°F5.8°C 41.9°F5.5°C 98% 4.6 mph N7.4 kmh N 4.6 mph7.4 kmh 29.69 in1005.4 mb - 0.24 in6.1 mm 0.30 in7.6 mm
05:10 AM 42.4°F5.8°C 41.9°F5.5°C 98% 4.6 mph NNE7.4 kmh NNE 8.1 mph13.0 kmh 29.69 in1005.4 mb - 0.26 in6.6 mm 0.32 in8.1 mm
05:15 AM 42.4°F5.8°C 41.9°F5.5°C 98% 5.8 mph ENE9.3 kmh ENE 5.8 mph9.3 kmh 29.68 in1005.1 mb - 0.27 in6.9 mm 0.33 in8.4 mm
05:20 AM 42.4°F5.8°C 41.9°F5.5°C 98% 4.6 mph NE7.4 kmh NE 5.8 mph9.3 kmh 29.68 in1005.1 mb - 0.27 in6.9 mm 0.33 in8.4 mm
05:25 AM 42.4°F5.8°C 41.9°F5.5°C 98% 5.8 mph E9.3 kmh E 8.1 mph13.0 kmh 29.68 in1005.1 mb - 0.27 in6.9 mm 0.34 in8.6 mm
05:30 AM 42.4°F5.8°C 41.9°F5.5°C 98% 5.8 mph NNE9.3 kmh NNE 9.2 mph14.8 kmh 29.68 in1005.1 mb - 0.26 in6.6 mm 0.35 in8.9 mm
05:35 AM 42.4°F5.8°C 41.9°F5.5°C 98% 4.6 mph NE7.4 kmh NE 5.8 mph9.3 kmh 29.68 in1005.1 mb - 0.23 in5.8 mm 0.35 in8.9 mm
05:40 AM 42.4°F5.8°C 41.9°F5.5°C 98% 3.5 mph NE5.6 kmh NE 3.5 mph5.6 kmh 29.69 in1005.4 mb - 0.22 in5.6 mm 0.36 in9.1 mm
05:45 AM 42.4°F5.8°C 41.9°F5.5°C 98% 4.6 mph NNE7.4 kmh NNE 11.5 mph18.5 kmh 29.67 in1004.7 mb - 0.18 in4.6 mm 0.37 in9.4 mm
05:50 AM 42.4°F5.8°C 41.9°F5.5°C 98% 3.5 mph ESE5.6 kmh ESE 3.5 mph5.6 kmh 29.69 in1005.4 mb - 0.15 in3.8 mm 0.38 in9.7 mm
05:55 AM 42.4°F5.8°C 41.9°F5.5°C 98% 3.5 mph NE5.6 kmh NE 3.5 mph5.6 kmh 29.68 in1005.1 mb - 0.14 in3.6 mm 0.39 in9.9 mm
06:00 AM 42.4°F5.8°C 41.9°F5.5°C 98% 4.6 mph NE7.4 kmh NE 6.9 mph11.1 kmh 29.68 in1005.1 mb - 0.11 in2.8 mm 0.40 in10.2 mm
06:10 AM 42.4°F5.8°C 41.9°F5.5°C 98% 3.5 mph ESE5.6 kmh ESE 5.8 mph9.3 kmh 29.67 in1004.7 mb - 0.09 in2.3 mm 0.41 in10.4 mm
06:15 AM 42.4°F5.8°C 41.9°F5.5°C 98% 3.5 mph ESE5.6 kmh ESE 5.8 mph9.3 kmh 29.67 in1004.7 mb - 0.08 in2.0 mm 0.41 in10.4 mm
06:20 AM 42.4°F5.8°C 41.9°F5.5°C 98% 4.6 mph NE7.4 kmh NE 6.9 mph11.1 kmh 29.66 in1004.4 mb - 0.10 in2.5 mm 0.43 in10.9 mm
06:25 AM 42.4°F5.8°C 41.9°F5.5°C 98% 5.8 mph NE9.3 kmh NE 8.1 mph13.0 kmh 29.67 in1004.7 mb - 0.09 in2.3 mm 0.43 in10.9 mm
06:30 AM 42.4°F5.8°C 41.9°F5.5°C 98% 3.5 mph NE5.6 kmh NE 5.8 mph9.3 kmh 29.66 in1004.4 mb - 0.08 in2.0 mm 0.43 in10.9 mm
06:35 AM 42.4°F5.8°C 41.9°F5.5°C 98% 4.6 mph NE7.4 kmh NE 8.1 mph13.0 kmh 29.66 in1004.4 mb - 0.08 in2.0 mm 0.43 in10.9 mm
06:40 AM 42.4°F5.8°C 41.9°F5.5°C 98% 3.5 mph NE5.6 kmh NE 3.5 mph5.6 kmh 29.66 in1004.4 mb - 0.07 in1.8 mm 0.43 in10.9 mm
06:45 AM 42.4°F5.8°C 41.9°F5.5°C 98% 3.5 mph NE5.6 kmh NE 3.5 mph5.6 kmh 29.65 in1004.1 mb - 0.06 in1.5 mm 0.43 in10.9 mm
06:50 AM 42.4°F5.8°C 41.9°F5.5°C 98% 5.8 mph NE9.3 kmh NE 3.5 mph5.6 kmh 29.66 in1004.4 mb - 0.05 in1.3 mm 0.43 in10.9 mm
06:55 AM 42.4°F5.8°C 41.9°F5.5°C 98% 5.8 mph ENE9.3 kmh ENE 5.8 mph9.3 kmh 29.66 in1004.4 mb - 0.04 in1.0 mm 0.43 in10.9 mm
07:00 AM 42.4°F5.8°C 41.9°F5.5°C 98% 3.5 mph ENE5.6 kmh ENE 3.5 mph5.6 kmh 29.66 in1004.4 mb - 0.03 in0.8 mm 0.43 in10.9 mm
07:10 AM 42.6°F5.9°C 42.1°F5.6°C 98% 3.5 mph NE5.6 kmh NE 4.6 mph7.4 kmh 29.66 in1004.4 mb - 0.02 in0.5 mm 0.43 in10.9 mm
07:15 AM 42.6°F5.9°C 42.1°F5.6°C 98% 4.6 mph N7.4 kmh N 6.9 mph11.1 kmh 29.67 in1004.7 mb - 0.02 in0.5 mm 0.43 in10.9 mm
07:20 AM 42.6°F5.9°C 42.1°F5.6°C 98% 4.6 mph NNE7.4 kmh NNE 3.5 mph5.6 kmh 29.66 in1004.4 mb - 0.00 in0.0 mm 0.43 in10.9 mm
07:25 AM 43.0°F6.1°C 42.5°F5.8°C 98% 3.5 mph NNE5.6 kmh NNE 6.9 mph11.1 kmh 29.66 in1004.4 mb - 0.00 in0.0 mm 0.43 in10.9 mm
07:30 AM 43.0°F6.1°C 42.5°F5.8°C 98% 4.6 mph NE7.4 kmh NE 5.8 mph9.3 kmh 29.66 in1004.4 mb - 0.00 in0.0 mm 0.43 in10.9 mm
07:35 AM 43.0°F6.1°C 42.5°F5.8°C 98% 3.5 mph N5.6 kmh N 5.8 mph9.3 kmh 29.67 in1004.7 mb - 0.00 in0.0 mm 0.43 in10.9 mm
07:40 AM 43.0°F6.1°C 42.5°F5.8°C 98% 3.5 mph NNE5.6 kmh NNE 3.5 mph5.6 kmh 29.67 in1004.7 mb - 0.00 in0.0 mm 0.43 in10.9 mm
07:45 AM 43.2°F6.2°C 42.6°F5.9°C 98% 3.5 mph NE5.6 kmh NE 4.6 mph7.4 kmh 29.68 in1005.1 mb - 0.00 in0.0 mm 0.43 in10.9 mm
07:50 AM 43.2°F6.2°C 42.6°F5.9°C 98% 3.5 mph NE5.6 kmh NE 2.3 mph3.7 kmh 29.67 in1004.7 mb - 0.00 in0.0 mm 0.43 in10.9 mm
07:55 AM 43.2°F6.2°C 42.6°F5.9°C 98% 5.8 mph NNE9.3 kmh NNE 8.1 mph13.0 kmh 29.66 in1004.4 mb - 0.00 in0.0 mm 0.43 in10.9 mm
08:00 AM 43.2°F6.2°C 42.6°F5.9°C 98% 4.6 mph NNE7.4 kmh NNE 8.1 mph13.0 kmh 29.65 in1004.1 mb - 0.00 in0.0 mm 0.43 in10.9 mm
08:10 AM 43.2°F6.2°C 42.6°F5.9°C 98% 5.8 mph NNE9.3 kmh NNE 5.8 mph9.3 kmh 29.65 in1004.1 mb - 0.00 in0.0 mm 0.43 in10.9 mm
08:15 AM 43.2°F6.2°C 42.6°F5.9°C 98% 3.5 mph NE5.6 kmh NE 3.5 mph5.6 kmh 29.64 in1003.7 mb - 0.00 in0.0 mm 0.43 in10.9 mm
08:20 AM 43.3°F6.3°C 42.8°F6.0°C 98% 3.5 mph NNW5.6 kmh NNW 3.5 mph5.6 kmh 29.64 in1003.7 mb - 0.00 in0.0 mm 0.43 in10.9 mm
08:25 AM 43.3°F6.3°C 42.8°F6.0°C 98% 3.5 mph NNE5.6 kmh NNE 3.5 mph5.6 kmh 29.64 in1003.7 mb - 0.00 in0.0 mm 0.43 in10.9 mm
08:30 AM 43.5°F6.4°C 43.0°F6.1°C 98% 4.6 mph NNE7.4 kmh NNE 3.5 mph5.6 kmh 29.65 in1004.1 mb - 0.01 in0.3 mm 0.44 in11.2 mm
08:35 AM 43.5°F6.4°C 43.0°F6.1°C 98% 3.5 mph NE5.6 kmh NE 5.8 mph9.3 kmh 29.65 in1004.1 mb - 0.01 in0.3 mm 0.44 in11.2 mm
08:40 AM 43.5°F6.4°C 43.0°F6.1°C 98% 5.8 mph NNE9.3 kmh NNE 3.5 mph5.6 kmh 29.65 in1004.1 mb - 0.01 in0.3 mm 0.44 in11.2 mm
08:45 AM 43.5°F6.4°C 43.0°F6.1°C 98% 3.5 mph 5.6 kmh 8.1 mph13.0 kmh 29.65 in1004.1 mb - 0.01 in0.3 mm 0.44 in11.2 mm
08:50 AM 43.5°F6.4°C 43.0°F6.1°C 98% 3.5 mph N5.6 kmh N 8.1 mph13.0 kmh 29.64 in1003.7 mb - 0.01 in0.3 mm 0.44 in11.2 mm
08:55 AM 43.5°F6.4°C 43.0°F6.1°C 98% 3.5 mph N5.6 kmh N 8.1 mph13.0 kmh 29.64 in1003.7 mb - 0.01 in0.3 mm 0.44 in11.2 mm
09:00 AM 43.9°F6.6°C 43.4°F6.3°C 98% 5.8 mph N9.3 kmh N 9.2 mph14.8 kmh 29.64 in1003.7 mb - 0.01 in0.3 mm 0.44 in11.2 mm
09:10 AM 43.9°F6.6°C 43.4°F6.3°C 98% 5.8 mph NNE9.3 kmh NNE 3.5 mph5.6 kmh 29.64 in1003.7 mb - 0.01 in0.3 mm 0.44 in11.2 mm
09:15 AM 43.9°F6.6°C 43.4°F6.3°C 98% 4.6 mph N7.4 kmh N 4.6 mph7.4 kmh 29.64 in1003.7 mb - 0.01 in0.3 mm 0.44 in11.2 mm
09:20 AM 44.1°F6.7°C 43.5°F6.4°C 98% 3.5 mph NE5.6 kmh NE 3.5 mph5.6 kmh 29.63 in1003.4 mb - 0.01 in0.3 mm 0.44 in11.2 mm
09:25 AM 44.2°F6.8°C 43.7°F6.5°C 98% 3.5 mph NE5.6 kmh NE 3.5 mph5.6 kmh 29.63 in1003.4 mb - 0.01 in0.3 mm 0.44 in11.2 mm
09:30 AM 44.4°F6.9°C 43.9°F6.6°C 98% 2.3 mph NW3.7 kmh NW 2.3 mph3.7 kmh 29.63 in1003.4 mb - 0.00 in0.0 mm 0.44 in11.2 mm
09:35 AM 44.4°F6.9°C 43.9°F6.6°C 98% 4.6 mph N7.4 kmh N 3.5 mph5.6 kmh 29.63 in1003.4 mb - 0.00 in0.0 mm 0.44 in11.2 mm
09:40 AM 44.4°F6.9°C 43.9°F6.6°C 98% 4.6 mph NNE7.4 kmh NNE 4.6 mph7.4 kmh 29.63 in1003.4 mb - 0.00 in0.0 mm 0.44 in11.2 mm
09:45 AM 44.6°F7.0°C 44.1°F6.7°C 98% 4.6 mph NNE7.4 kmh NNE 6.9 mph11.1 kmh 29.62 in1003.0 mb - 0.00 in0.0 mm 0.44 in11.2 mm
09:50 AM 44.6°F7.0°C 44.1°F6.7°C 98% 4.6 mph NE7.4 kmh NE 4.6 mph7.4 kmh 29.62 in1003.0 mb - 0.00 in0.0 mm 0.44 in11.2 mm
09:55 AM 44.8°F7.1°C 44.3°F6.8°C 98% 3.5 mph N5.6 kmh N 11.5 mph18.5 kmh 29.62 in1003.0 mb - 0.00 in0.0 mm 0.44 in11.2 mm
10:00 AM 44.4°F6.9°C 43.9°F6.6°C 98% 6.9 mph E11.1 kmh E 3.5 mph5.6 kmh 29.61 in1002.7 mb - 0.00 in0.0 mm 0.44 in11.2 mm
10:10 AM 44.6°F7.0°C 44.1°F6.7°C 98% 6.9 mph NNE11.1 kmh NNE 8.1 mph13.0 kmh 29.59 in1002.0 mb - 0.00 in0.0 mm 0.44 in11.2 mm
10:15 AM 44.8°F7.1°C 44.3°F6.8°C 98% 4.6 mph NNE7.4 kmh NNE 5.8 mph9.3 kmh 29.60 in1002.4 mb - 0.00 in0.0 mm 0.44 in11.2 mm
10:20 AM 45.0°F7.2°C 44.4°F6.9°C 98% 4.6 mph NW7.4 kmh NW 8.1 mph13.0 kmh 29.59 in1002.0 mb - 0.00 in0.0 mm 0.44 in11.2 mm
10:25 AM 45.0°F7.2°C 44.4°F6.9°C 98% 5.8 mph N9.3 kmh N 6.9 mph11.1 kmh 29.60 in1002.4 mb - 0.00 in0.0 mm 0.44 in11.2 mm
10:30 AM 45.0°F7.2°C 44.4°F6.9°C 98% 4.6 mph N7.4 kmh N 6.9 mph11.1 kmh 29.60 in1002.4 mb - 0.00 in0.0 mm 0.44 in11.2 mm
10:35 AM 45.1°F7.3°C 44.6°F7.0°C 98% 3.5 mph N5.6 kmh N 3.5 mph5.6 kmh 29.60 in1002.4 mb - 0.00 in0.0 mm 0.44 in11.2 mm
10:40 AM 45.0°F7.2°C 44.4°F6.9°C 98% 5.8 mph N9.3 kmh N 9.2 mph14.8 kmh 29.60 in1002.4 mb - 0.00 in0.0 mm 0.44 in11.2 mm
10:45 AM 45.0°F7.2°C 44.4°F6.9°C 98% 5.8 mph NNE9.3 kmh NNE 9.2 mph14.8 kmh 29.61 in1002.7 mb - 0.00 in0.0 mm 0.44 in11.2 mm
10:50 AM 45.0°F7.2°C 44.4°F6.9°C 98% 4.6 mph N7.4 kmh N 9.2 mph14.8 kmh 29.62 in1003.0 mb - 0.00 in0.0 mm 0.44 in11.2 mm
10:55 AM 45.0°F7.2°C 44.4°F6.9°C 98% 5.8 mph 9.3 kmh 3.5 mph5.6 kmh 29.62 in1003.0 mb - 0.00 in0.0 mm 0.44 in11.2 mm
11:00 AM 45.0°F7.2°C 44.4°F6.9°C 98% 2.3 mph E3.7 kmh E 3.5 mph5.6 kmh 29.61 in1002.7 mb - 0.00 in0.0 mm 0.44 in11.2 mm
11:10 AM 45.0°F7.2°C 44.4°F6.9°C 98% 4.6 mph NE7.4 kmh NE 5.8 mph9.3 kmh 29.61 in1002.7 mb - 0.00 in0.0 mm 0.44 in11.2 mm
11:15 AM 45.0°F7.2°C 44.4°F6.9°C 98% 3.5 mph N5.6 kmh N 5.8 mph9.3 kmh 29.61 in1002.7 mb - 0.00 in0.0 mm 0.44 in11.2 mm
11:20 AM 45.1°F7.3°C 44.6°F7.0°C 98% 4.6 mph NNE7.4 kmh NNE 4.6 mph7.4 kmh 29.61 in1002.7 mb - 0.00 in0.0 mm 0.44 in11.2 mm
11:25 AM 45.1°F7.3°C 44.6°F7.0°C 98% 4.6 mph NE7.4 kmh NE 8.1 mph13.0 kmh 29.60 in1002.4 mb - 0.00 in0.0 mm 0.44 in11.2 mm
11:30 AM 45.1°F7.3°C 44.6°F7.0°C 98% 4.6 mph NNE7.4 kmh NNE 6.9 mph11.1 kmh 29.60 in1002.4 mb - 0.00 in0.0 mm 0.44 in11.2 mm
11:35 AM 45.1°F7.3°C 44.6°F7.0°C 98% 4.6 mph N7.4 kmh N 4.6 mph7.4 kmh 29.60 in1002.4 mb - 0.00 in0.0 mm 0.44 in11.2 mm
11:40 AM 45.1°F7.3°C 44.6°F7.0°C 98% 3.5 mph NE5.6 kmh NE 3.5 mph5.6 kmh 29.60 in1002.4 mb - 0.00 in0.0 mm 0.44 in11.2 mm
11:45 AM 45.1°F7.3°C 44.6°F7.0°C 98% 2.3 mph NE3.7 kmh NE 3.5 mph5.6 kmh 29.61 in1002.7 mb - 0.00 in0.0 mm 0.44 in11.2 mm
11:50 AM 45.1°F7.3°C 44.6°F7.0°C 98% 3.5 mph ENE5.6 kmh ENE 6.9 mph11.1 kmh 29.60 in1002.4 mb - 0.00 in0.0 mm 0.44 in11.2 mm
11:55 AM 45.1°F7.3°C 44.6°F7.0°C 98% 3.5 mph N5.6 kmh N 5.8 mph9.3 kmh 29.60 in1002.4 mb - 0.00 in0.0 mm 0.44 in11.2 mm
12:00 PM 45.1°F7.3°C 44.6°F7.0°C 98% 4.6 mph NE7.4 kmh NE 3.5 mph5.6 kmh 29.60 in1002.4 mb - 0.00 in0.0 mm 0.44 in11.2 mm
12:10 PM 45.1°F7.3°C 44.6°F7.0°C 98% 3.5 mph NE5.6 kmh NE 5.8 mph9.3 kmh 29.60 in1002.4 mb - 0.00 in0.0 mm 0.44 in11.2 mm
12:15 PM 45.5°F7.5°C 45.0°F7.2°C 98% 3.5 mph NNE5.6 kmh NNE 3.5 mph5.6 kmh 29.60 in1002.4 mb - 0.00 in0.0 mm 0.44 in11.2 mm
12:20 PM 45.7°F7.6°C 45.1°F7.3°C 98% 3.5 mph 5.6 kmh 4.6 mph7.4 kmh 29.59 in1002.0 mb - 0.00 in0.0 mm 0.44 in11.2 mm
12:25 PM 45.9°F7.7°C 45.3°F7.4°C 98% 3.5 mph NE5.6 kmh NE 3.5 mph5.6 kmh 29.59 in1002.0 mb - 0.00 in0.0 mm 0.44 in11.2 mm
12:30 PM 45.9°F7.7°C 45.3°F7.4°C 98% 2.3 mph N3.7 kmh N 5.8 mph9.3 kmh 29.59 in1002.0 mb - 0.00 in0.0 mm 0.44 in11.2 mm
12:35 PM 45.9°F7.7°C 45.3°F7.4°C 98% 3.5 mph NNE5.6 kmh NNE 4.6 mph7.4 kmh 29.59 in1002.0 mb - 0.00 in0.0 mm 0.44 in11.2 mm
12:40 PM 45.9°F7.7°C 45.3°F7.4°C 98% 3.5 mph NE5.6 kmh NE 4.6 mph7.4 kmh 29.59 in1002.0 mb - 0.00 in0.0 mm 0.44 in11.2 mm
12:45 PM 45.9°F7.7°C 45.3°F7.4°C 98% 3.5 mph NE5.6 kmh NE 3.5 mph5.6 kmh 29.58 in1001.7 mb - 0.00 in0.0 mm 0.44 in11.2 mm
12:50 PM 45.9°F7.7°C 45.3°F7.4°C 98% 3.5 mph NE5.6 kmh NE 4.6 mph7.4 kmh 29.59 in1002.0 mb - 0.00 in0.0 mm 0.44 in11.2 mm
12:55 PM 45.9°F7.7°C 45.3°F7.4°C 98% 3.5 mph NE5.6 kmh NE 3.5 mph5.6 kmh 29.59 in1002.0 mb - 0.00 in0.0 mm 0.44 in11.2 mm
01:00 PM 45.9°F7.7°C 45.3°F7.4°C 98% 3.5 mph NNE5.6 kmh NNE 5.8 mph9.3 kmh 29.59 in1002.0 mb - 0.00 in0.0 mm 0.44 in11.2 mm
01:10 PM 45.7°F7.6°C 45.1°F7.3°C 98% 3.5 mph NNE5.6 kmh NNE 3.5 mph5.6 kmh 29.60 in1002.4 mb - 0.01 in0.3 mm 0.45 in11.4 mm
01:15 PM 45.5°F7.5°C 45.0°F7.2°C 98% 3.5 mph NW5.6 kmh NW 6.9 mph11.1 kmh 29.60 in1002.4 mb - 0.03 in0.8 mm 0.47 in11.9 mm
01:20 PM 45.5°F7.5°C 45.0°F7.2°C 98% 4.6 mph NNE7.4 kmh NNE 8.1 mph13.0 kmh 29.59 in1002.0 mb - 0.04 in1.0 mm 0.48 in12.2 mm
01:25 PM 45.5°F7.5°C 45.0°F7.2°C 98% 4.6 mph NNW7.4 kmh NNW 2.3 mph3.7 kmh 29.58 in1001.7 mb - 0.04 in1.0 mm 0.48 in12.2 mm
01:30 PM 45.5°F7.5°C 45.0°F7.2°C 98% 3.5 mph N5.6 kmh N 2.3 mph3.7 kmh 29.59 in1002.0 mb - 0.07 in1.8 mm 0.51 in13.0 mm
01:35 PM 45.7°F7.6°C 45.1°F7.3°C 98% 2.3 mph NE3.7 kmh NE 3.5 mph5.6 kmh 29.59 in1002.0 mb - 0.09 in2.3 mm 0.53 in13.5 mm
01:40 PM 45.7°F7.6°C 45.1°F7.3°C 98% 2.3 mph N3.7 kmh N 3.5 mph5.6 kmh 29.59 in1002.0 mb - 0.10 in2.5 mm 0.54 in13.7 mm
01:45 PM 45.7°F7.6°C 45.1°F7.3°C 98% 3.5 mph NW5.6 kmh NW 5.8 mph9.3 kmh 29.59 in1002.0 mb - 0.12 in3.0 mm 0.56 in14.2 mm
01:50 PM 45.7°F7.6°C 45.1°F7.3°C 98% 4.6 mph NNW7.4 kmh NNW 5.8 mph9.3 kmh 29.58 in1001.7 mb - 0.12 in3.0 mm 0.56 in14.2 mm
01:55 PM 45.7°F7.6°C 45.1°F7.3°C 98% 4.6 mph NE7.4 kmh NE 8.1 mph13.0 kmh 29.58 in1001.7 mb - 0.14 in3.6 mm 0.58 in14.7 mm
02:00 PM 45.7°F7.6°C 45.1°F7.3°C 98% 4.6 mph NE7.4 kmh NE 4.6 mph7.4 kmh 29.55 in1000.7 mb - 0.16 in4.1 mm 0.60 in15.2 mm
02:10 PM 45.9°F7.7°C 45.3°F7.4°C 98% 6.9 mph NNE11.1 kmh NNE 8.1 mph13.0 kmh 29.55 in1000.7 mb - 0.17 in4.3 mm 0.62 in15.7 mm
02:15 PM 45.9°F7.7°C 45.3°F7.4°C 98% 6.9 mph N11.1 kmh N 15.0 mph24.1 kmh 29.57 in1001.4 mb - 0.16 in4.1 mm 0.63 in16.0 mm
02:20 PM 45.9°F7.7°C 45.3°F7.4°C 98% 4.6 mph N7.4 kmh N 9.2 mph14.8 kmh 29.59 in1002.0 mb - 0.15 in3.8 mm 0.63 in16.0 mm
02:25 PM 45.7°F7.6°C 45.1°F7.3°C 98% 5.8 mph N9.3 kmh N 3.5 mph5.6 kmh 29.57 in1001.4 mb - 0.16 in4.1 mm 0.64 in16.3 mm
02:30 PM 45.9°F7.7°C 45.3°F7.4°C 98% 4.6 mph NNW7.4 kmh NNW 8.1 mph13.0 kmh 29.57 in1001.4 mb - 0.18 in4.6 mm 0.66 in16.8 mm
02:35 PM 45.9°F7.7°C 45.3°F7.4°C 98% 5.8 mph N9.3 kmh N 3.5 mph5.6 kmh 29.57 in1001.4 mb - 0.14 in3.6 mm 0.66 in16.8 mm
02:40 PM 45.9°F7.7°C 45.3°F7.4°C 98% 6.9 mph NNE11.1 kmh NNE 10.4 mph16.7 kmh 29.57 in1001.4 mb - 0.12 in3.0 mm 0.66 in16.8 mm
02:45 PM 45.7°F7.6°C 45.1°F7.3°C 98% 6.9 mph N11.1 kmh N 10.4 mph16.7 kmh 29.57 in1001.4 mb - 0.12 in3.0 mm 0.67 in17.0 mm
02:50 PM 45.8°F7.7°C 45.3°F7.4°C 98% 6.9 mph N11.1 kmh N 4.6 mph7.4 kmh 29.57 in1001.4 mb - 0.11 in2.8 mm 0.67 in17.0 mm
02:55 PM 45.9°F7.7°C 45.3°F7.4°C 98% 6.9 mph N11.1 kmh N 12.7 mph20.4 kmh 29.57 in1001.4 mb - 0.11 in2.8 mm 0.69 in17.5 mm
03:00 PM 45.9°F7.7°C 45.3°F7.4°C 98% 6.9 mph N11.1 kmh N 9.2 mph14.8 kmh 29.57 in1001.4 mb - 0.10 in2.5 mm 0.70 in17.8 mm
03:10 PM 46.4°F8.0°C 45.3°F7.4°C 96% 8.1 mph N13.0 kmh N 9.2 mph14.8 kmh 29.55 in1000.7 mb - 0.09 in2.3 mm 0.71 in18.0 mm
03:15 PM 46.4°F8.0°C 45.3°F7.4°C 96% 5.8 mph E9.3 kmh E 3.5 mph5.6 kmh 29.55 in1000.7 mb - 0.09 in2.3 mm 0.71 in18.0 mm
03:20 PM 46.9°F8.3°C 45.9°F7.7°C 96% 5.8 mph N9.3 kmh N 9.2 mph14.8 kmh 29.56 in1001.0 mb - 0.08 in2.0 mm 0.71 in18.0 mm
03:25 PM 46.6°F8.1°C 45.5°F7.5°C 96% 8.1 mph NNE13.0 kmh NNE 6.9 mph11.1 kmh 29.55 in1000.7 mb - 0.07 in1.8 mm 0.71 in18.0 mm
03:30 PM 46.8°F8.2°C 45.7°F7.6°C 96% 8.1 mph NE13.0 kmh NE 10.4 mph16.7 kmh 29.55 in1000.7 mb - 0.06 in1.5 mm 0.71 in18.0 mm
03:35 PM 46.8°F8.2°C 45.7°F7.6°C 96% 4.6 mph N7.4 kmh N 5.8 mph9.3 kmh 29.55 in1000.7 mb - 0.05 in1.3 mm 0.71 in18.0 mm
03:40 PM 46.7°F8.2°C 45.6°F7.6°C 96% 5.8 mph 9.3 kmh 9.2 mph14.8 kmh 29.55 in1000.7 mb - 0.05 in1.3 mm 0.71 in18.0 mm
03:45 PM 46.4°F8.0°C 45.3°F7.4°C 96% 8.1 mph W13.0 kmh W 8.1 mph13.0 kmh 29.55 in1000.7 mb - 0.05 in1.3 mm 0.71 in18.0 mm
03:50 PM 46.4°F8.0°C 45.3°F7.4°C 96% 10.4 mph NNE16.7 kmh NNE 10.4 mph16.7 kmh 29.55 in1000.7 mb - 0.04 in1.0 mm 0.71 in18.0 mm
03:55 PM 46.6°F8.1°C 45.5°F7.5°C 96% 5.8 mph NNE9.3 kmh NNE 4.6 mph7.4 kmh 29.55 in1000.7 mb - 0.02 in0.5 mm 0.71 in18.0 mm
04:00 PM 46.8°F8.2°C 45.7°F7.6°C 96% 3.5 mph NNE5.6 kmh NNE 3.5 mph5.6 kmh 29.55 in1000.7 mb - 0.01 in0.3 mm 0.71 in18.0 mm
04:10 PM 46.6°F8.1°C 45.5°F7.5°C 96% 5.8 mph NNW9.3 kmh NNW 8.1 mph13.0 kmh 29.55 in1000.7 mb - 0.00 in0.0 mm 0.71 in18.0 mm
04:15 PM 46.6°F8.1°C 45.2°F7.3°C 95% 6.9 mph WNW11.1 kmh WNW 6.9 mph11.1 kmh 29.55 in1000.7 mb - 0.00 in0.0 mm 0.71 in18.0 mm
04:20 PM 46.4°F8.0°C 45.0°F7.2°C 95% 6.9 mph N11.1 kmh N 8.1 mph13.0 kmh 29.55 in1000.7 mb - 0.00 in0.0 mm 0.71 in18.0 mm
04:25 PM 46.0°F7.8°C 44.7°F7.1°C 95% 6.9 mph NNE11.1 kmh NNE 5.8 mph9.3 kmh 29.55 in1000.7 mb - 0.00 in0.0 mm 0.71 in18.0 mm
04:30 PM 46.0°F7.8°C 44.7°F7.1°C 95% 5.8 mph NW9.3 kmh NW 9.2 mph14.8 kmh 29.55 in1000.7 mb - 0.00 in0.0 mm 0.71 in18.0 mm
04:35 PM 45.9°F7.7°C 44.5°F6.9°C 95% 6.9 mph NE11.1 kmh NE 9.2 mph14.8 kmh 29.57 in1001.4 mb - 0.00 in0.0 mm 0.71 in18.0 mm
04:40 PM 45.9°F7.7°C 44.5°F6.9°C 95% 4.6 mph N7.4 kmh N 6.9 mph11.1 kmh 29.57 in1001.4 mb - 0.00 in0.0 mm 0.71 in18.0 mm
04:45 PM 45.9°F7.7°C 44.5°F6.9°C 95% 5.8 mph NNE9.3 kmh NNE 9.2 mph14.8 kmh 29.57 in1001.4 mb - 0.00 in0.0 mm 0.71 in18.0 mm
04:50 PM 45.9°F7.7°C 44.5°F6.9°C 95% 5.8 mph NE9.3 kmh NE 9.2 mph14.8 kmh 29.57 in1001.4 mb - 0.00 in0.0 mm 0.71 in18.0 mm
04:55 PM 45.9°F7.7°C 44.5°F6.9°C 95% 5.8 mph N9.3 kmh N 4.6 mph7.4 kmh 29.57 in1001.4 mb - 0.00 in0.0 mm 0.71 in18.0 mm
05:00 PM 45.9°F7.7°C 44.5°F6.9°C 95% 8.1 mph ENE13.0 kmh ENE 11.5 mph18.5 kmh 29.57 in1001.4 mb - 0.00 in0.0 mm 0.71 in18.0 mm
05:10 PM 45.9°F7.7°C 44.8°F7.1°C 96% 9.2 mph NE14.8 kmh NE 8.1 mph13.0 kmh 29.57 in1001.4 mb - 0.00 in0.0 mm 0.71 in18.0 mm
05:15 PM 45.9°F7.7°C 44.8°F7.1°C 96% 10.4 mph NNE16.7 kmh NNE 11.5 mph18.5 kmh 29.57 in1001.4 mb - 0.00 in0.0 mm 0.71 in18.0 mm
05:20 PM 45.9°F7.7°C 44.8°F7.1°C 96% 6.9 mph NNE11.1 kmh NNE 4.6 mph7.4 kmh 29.57 in1001.4 mb - 0.00 in0.0 mm 0.71 in18.0 mm
05:25 PM 45.9°F7.7°C 44.8°F7.1°C 96% 5.8 mph NE9.3 kmh NE 5.8 mph9.3 kmh 29.59 in1002.0 mb - 0.00 in0.0 mm 0.71 in18.0 mm
05:30 PM 45.9°F7.7°C 44.8°F7.1°C 96% 5.8 mph NNW9.3 kmh NNW 5.8 mph9.3 kmh 29.57 in1001.4 mb - 0.00 in0.0 mm 0.71 in18.0 mm
05:35 PM 45.9°F7.7°C 44.8°F7.1°C 96% 4.6 mph NNE7.4 kmh NNE 6.9 mph11.1 kmh 29.59 in1002.0 mb - 0.00 in0.0 mm 0.71 in18.0 mm
05:40 PM 45.9°F7.7°C 44.8°F7.1°C 96% 4.6 mph NNE7.4 kmh NNE 3.5 mph5.6 kmh 29.59 in1002.0 mb - 0.00 in0.0 mm 0.71 in18.0 mm
05:45 PM 46.0°F7.8°C 45.0°F7.2°C 96% 4.6 mph NNE7.4 kmh NNE 6.9 mph11.1 kmh 29.59 in1002.0 mb - 0.00 in0.0 mm 0.71 in18.0 mm
05:50 PM 46.0°F7.8°C 45.0°F7.2°C 96% 8.1 mph NW13.0 kmh NW 9.2 mph14.8 kmh 29.59 in1002.0 mb - 0.00 in0.0 mm 0.71 in18.0 mm
05:55 PM 46.0°F7.8°C 45.0°F7.2°C 96% 5.8 mph N9.3 kmh N 11.5 mph18.5 kmh 29.60 in1002.4 mb - 0.00 in0.0 mm 0.71 in18.0 mm
06:00 PM 46.2°F7.9°C 45.1°F7.3°C 96% 5.8 mph ENE9.3 kmh ENE 5.8 mph9.3 kmh 29.59 in1002.0 mb - 0.00 in0.0 mm 0.71 in18.0 mm
06:10 PM 46.4°F8.0°C 45.3°F7.4°C 96% 2.3 mph NE3.7 kmh NE 2.3 mph3.7 kmh 29.60 in1002.4 mb - 0.00 in0.0 mm 0.71 in18.0 mm
06:15 PM 46.6°F8.1°C 45.5°F7.5°C 96% 2.3 mph NE3.7 kmh NE 3.5 mph5.6 kmh 29.60 in1002.4 mb - 0.00 in0.0 mm 0.71 in18.0 mm
06:20 PM 46.6°F8.1°C 45.5°F7.5°C 96% 3.5 mph WSW5.6 kmh WSW 3.5 mph5.6 kmh 29.61 in1002.7 mb - 0.01 in0.3 mm 0.72 in18.3 mm
06:25 PM 46.6°F8.1°C 45.5°F7.5°C 96% 3.5 mph N5.6 kmh N 3.5 mph5.6 kmh 29.62 in1003.0 mb - 0.01 in0.3 mm 0.72 in18.3 mm
06:30 PM 46.6°F8.1°C 45.5°F7.5°C 96% 3.5 mph N5.6 kmh N 3.5 mph5.6 kmh 29.62 in1003.0 mb - 0.01 in0.3 mm 0.72 in18.3 mm
06:35 PM 46.9°F8.3°C 46.4°F8.0°C 98% 2.3 mph NNW3.7 kmh NNW 3.5 mph5.6 kmh 29.62 in1003.0 mb - 0.01 in0.3 mm 0.72 in18.3 mm
06:40 PM 46.9°F8.3°C 46.4°F8.0°C 98% 3.5 mph NW5.6 kmh NW 2.3 mph3.7 kmh 29.62 in1003.0 mb - 0.01 in0.3 mm 0.72 in18.3 mm
06:45 PM 46.9°F8.3°C 46.4°F8.0°C 98% 3.5 mph NW5.6 kmh NW 3.5 mph5.6 kmh 29.64 in1003.7 mb - 0.01 in0.3 mm 0.72 in18.3 mm
06:50 PM 46.9°F8.3°C 46.4°F8.0°C 98% 2.3 mph W3.7 kmh W 4.6 mph7.4 kmh 29.64 in1003.7 mb - 0.02 in0.5 mm 0.73 in18.5 mm
06:55 PM 46.9°F8.3°C 46.4°F8.0°C 98% 3.5 mph WNW5.6 kmh WNW 3.5 mph5.6 kmh 29.64 in1003.7 mb - 0.02 in0.5 mm 0.73 in18.5 mm
07:00 PM 46.8°F8.2°C 46.2°F7.9°C 98% 3.5 mph W5.6 kmh W 3.5 mph5.6 kmh 29.64 in1003.7 mb - 0.02 in0.5 mm 0.73 in18.5 mm
07:10 PM 46.4°F8.0°C 45.9°F7.7°C 98% 3.5 mph NNW5.6 kmh NNW 4.6 mph7.4 kmh 29.64 in1003.7 mb - 0.02 in0.5 mm 0.73 in18.5 mm
07:15 PM 46.4°F8.0°C 45.9°F7.7°C 98% 2.3 mph WNW3.7 kmh WNW 2.3 mph3.7 kmh 29.64 in1003.7 mb - 0.02 in0.5 mm 0.73 in18.5 mm
07:20 PM 46.0°F7.8°C 45.5°F7.5°C 98% 3.5 mph NW5.6 kmh NW 2.3 mph3.7 kmh 29.64 in1003.7 mb - 0.01 in0.3 mm 0.73 in18.5 mm
07:25 PM 46.0°F7.8°C 45.5°F7.5°C 98% 2.3 mph NW3.7 kmh NW 2.3 mph3.7 kmh 29.65 in1004.1 mb - 0.01 in0.3 mm 0.73 in18.5 mm
07:30 PM 46.0°F7.8°C 45.5°F7.5°C 98% 3.5 mph WNW5.6 kmh WNW 3.5 mph5.6 kmh 29.65 in1004.1 mb - 0.01 in0.3 mm 0.73 in18.5 mm
07:35 PM 45.9°F7.7°C 45.3°F7.4°C 98% 3.5 mph NW5.6 kmh NW 6.9 mph11.1 kmh 29.66 in1004.4 mb - 0.01 in0.3 mm 0.73 in18.5 mm
07:40 PM 45.7°F7.6°C 45.1°F7.3°C 98% 3.5 mph N5.6 kmh N 3.5 mph5.6 kmh 29.67 in1004.7 mb - 0.01 in0.3 mm 0.73 in18.5 mm
07:45 PM 45.5°F7.5°C 45.0°F7.2°C 98% 4.6 mph NW7.4 kmh NW 5.8 mph9.3 kmh 29.68 in1005.1 mb - 0.01 in0.3 mm 0.73 in18.5 mm
07:50 PM 45.1°F7.3°C 44.6°F7.0°C 98% 3.5 mph W5.6 kmh W 4.6 mph7.4 kmh 29.67 in1004.7 mb - 0.00 in0.0 mm 0.73 in18.5 mm
07:55 PM 45.1°F7.3°C 44.6°F7.0°C 98% 4.6 mph NW7.4 kmh NW 4.6 mph7.4 kmh 29.68 in1005.1 mb - 0.00 in0.0 mm 0.73 in18.5 mm
08:00 PM 45.0°F7.2°C 44.4°F6.9°C 98% 5.8 mph NW9.3 kmh NW 3.5 mph5.6 kmh 29.68 in1005.1 mb - 0.00 in0.0 mm 0.73 in18.5 mm
08:10 PM 44.9°F7.2°C 44.4°F6.9°C 98% 4.6 mph SW7.4 kmh SW 4.6 mph7.4 kmh 29.69 in1005.4 mb - 0.00 in0.0 mm 0.73 in18.5 mm
08:15 PM 44.6°F7.0°C 44.1°F6.7°C 98% 5.8 mph NW9.3 kmh NW 5.8 mph9.3 kmh 29.69 in1005.4 mb - 0.00 in0.0 mm 0.73 in18.5 mm
08:20 PM 44.4°F6.9°C 43.9°F6.6°C 98% 6.9 mph NW11.1 kmh NW 8.1 mph13.0 kmh 29.70 in1005.8 mb - 0.00 in0.0 mm 0.73 in18.5 mm
08:25 PM 44.4°F6.9°C 43.9°F6.6°C 98% 3.5 mph NW5.6 kmh NW 6.9 mph11.1 kmh 29.69 in1005.4 mb - 0.00 in0.0 mm 0.73 in18.5 mm
08:35 PM 44.0°F6.7°C 43.5°F6.4°C 98% 4.6 mph NW7.4 kmh NW 8.1 mph13.0 kmh 29.70 in1005.8 mb - 0.00 in0.0 mm 0.73 in18.5 mm
08:40 PM 43.9°F6.6°C 43.4°F6.3°C 98% 3.5 mph N5.6 kmh N 2.3 mph3.7 kmh 29.70 in1005.8 mb - 0.00 in0.0 mm 0.73 in18.5 mm
08:45 PM 43.9°F6.6°C 43.4°F6.3°C 98% 3.5 mph WNW5.6 kmh WNW 5.8 mph9.3 kmh 29.70 in1005.8 mb - 0.00 in0.0 mm 0.73 in18.5 mm
08:50 PM 43.9°F6.6°C 43.4°F6.3°C 98% 3.5 mph NW5.6 kmh NW 4.6 mph7.4 kmh 29.71 in1006.1 mb - 0.00 in0.0 mm 0.73 in18.5 mm
08:55 PM 43.9°F6.6°C 43.4°F6.3°C 98% 4.6 mph NW7.4 kmh NW 5.8 mph9.3 kmh 29.71 in1006.1 mb - 0.00 in0.0 mm 0.73 in18.5 mm
09:00 PM 43.9°F6.6°C 43.4°F6.3°C 98% 3.5 mph W5.6 kmh W 3.5 mph5.6 kmh 29.71 in1006.1 mb - 0.00 in0.0 mm 0.73 in18.5 mm
09:10 PM 43.9°F6.6°C 43.4°F6.3°C 98% 4.6 mph WNW7.4 kmh WNW 3.5 mph5.6 kmh 29.71 in1006.1 mb - 0.00 in0.0 mm 0.73 in18.5 mm
09:15 PM 43.9°F6.6°C 43.4°F6.3°C 98% 3.5 mph WNW5.6 kmh WNW 4.6 mph7.4 kmh 29.71 in1006.1 mb - 0.00 in0.0 mm 0.73 in18.5 mm
09:20 PM 43.9°F6.6°C 43.4°F6.3°C 98% 3.5 mph NNW5.6 kmh NNW 2.3 mph3.7 kmh 29.71 in1006.1 mb - 0.00 in0.0 mm 0.73 in18.5 mm
09:25 PM 43.5°F6.4°C 43.0°F6.1°C 98% 3.5 mph W5.6 kmh W 3.5 mph5.6 kmh 29.72 in1006.4 mb - 0.00 in0.0 mm 0.73 in18.5 mm
09:30 PM 43.5°F6.4°C 43.0°F6.1°C 98% 2.3 mph WNW3.7 kmh WNW 2.3 mph3.7 kmh 29.72 in1006.4 mb - 0.00 in0.0 mm 0.73 in18.5 mm
09:35 PM 43.5°F6.4°C 43.0°F6.1°C 98% 3.5 mph WNW5.6 kmh WNW 5.8 mph9.3 kmh 29.72 in1006.4 mb - 0.00 in0.0 mm 0.73 in18.5 mm
09:40 PM 43.3°F6.3°C 42.8°F6.0°C 98% 4.6 mph WNW7.4 kmh WNW 3.5 mph5.6 kmh 29.72 in1006.4 mb - 0.00 in0.0 mm 0.73 in18.5 mm
09:45 PM 43.3°F6.3°C 42.8°F6.0°C 98% 3.5 mph N5.6 kmh N 3.5 mph5.6 kmh 29.72 in1006.4 mb - 0.00 in0.0 mm 0.73 in18.5 mm
09:50 PM 43.3°F6.3°C 42.8°F6.0°C 98% 3.5 mph W5.6 kmh W 4.6 mph7.4 kmh 29.72 in1006.4 mb - 0.00 in0.0 mm 0.73 in18.5 mm
09:55 PM 43.3°F6.3°C 42.8°F6.0°C 98% 3.5 mph WSW5.6 kmh WSW 4.6 mph7.4 kmh 29.73 in1006.8 mb - 0.00 in0.0 mm 0.73 in18.5 mm
10:00 PM 43.3°F6.3°C 42.8°F6.0°C 98% 3.5 mph W5.6 kmh W 5.8 mph9.3 kmh 29.73 in1006.8 mb - 0.00 in0.0 mm 0.73 in18.5 mm
10:10 PM 43.3°F6.3°C 42.8°F6.0°C 98% 3.5 mph W5.6 kmh W 2.3 mph3.7 kmh 29.74 in1007.1 mb - 0.00 in0.0 mm 0.73 in18.5 mm
10:15 PM 43.3°F6.3°C 42.8°F6.0°C 98% 3.5 mph W5.6 kmh W 3.5 mph5.6 kmh 29.73 in1006.8 mb - 0.00 in0.0 mm 0.73 in18.5 mm
10:20 PM 43.3°F6.3°C 42.8°F6.0°C 98% 3.5 mph W5.6 kmh W 3.5 mph5.6 kmh 29.73 in1006.8 mb - 0.00 in0.0 mm 0.73 in18.5 mm
10:25 PM 43.3°F6.3°C 42.8°F6.0°C 98% 3.5 mph W5.6 kmh W 3.5 mph5.6 kmh 29.73 in1006.8 mb - 0.00 in0.0 mm 0.73 in18.5 mm
10:30 PM 43.3°F6.3°C 42.8°F6.0°C 98% 4.6 mph W7.4 kmh W 8.1 mph13.0 kmh 29.74 in1007.1 mb - 0.00 in0.0 mm 0.73 in18.5 mm
10:35 PM 43.3°F6.3°C 42.8°F6.0°C 98% 3.5 mph WSW5.6 kmh WSW 3.5 mph5.6 kmh 29.74 in1007.1 mb - 0.00 in0.0 mm 0.73 in18.5 mm
10:40 PM 43.3°F6.3°C 42.8°F6.0°C 98% 3.5 mph W5.6 kmh W 3.5 mph5.6 kmh 29.74 in1007.1 mb - 0.00 in0.0 mm 0.73 in18.5 mm
10:45 PM 43.3°F6.3°C 42.8°F6.0°C 98% 4.6 mph WNW7.4 kmh WNW 4.6 mph7.4 kmh 29.75 in1007.5 mb - 0.00 in0.0 mm 0.73 in18.5 mm
10:50 PM 43.2°F6.2°C 42.6°F5.9°C 98% 4.6 mph WSW7.4 kmh WSW 4.6 mph7.4 kmh 29.74 in1007.1 mb - 0.00 in0.0 mm 0.73 in18.5 mm
10:55 PM 43.2°F6.2°C 42.6°F5.9°C 98% 3.5 mph W5.6 kmh W 3.5 mph5.6 kmh 29.75 in1007.5 mb - 0.00 in0.0 mm 0.73 in18.5 mm
11:00 PM 43.2°F6.2°C 42.6°F5.9°C 98% 4.6 mph W7.4 kmh W 3.5 mph5.6 kmh 29.75 in1007.5 mb - 0.00 in0.0 mm 0.73 in18.5 mm
11:10 PM 43.2°F6.2°C 42.6°F5.9°C 98% 3.5 mph W5.6 kmh W 10.4 mph16.7 kmh 29.75 in1007.5 mb - 0.00 in0.0 mm 0.73 in18.5 mm
11:15 PM 43.2°F6.2°C 42.6°F5.9°C 98% 4.6 mph W7.4 kmh W 4.6 mph7.4 kmh 29.75 in1007.5 mb - 0.00 in0.0 mm 0.73 in18.5 mm
11:20 PM 43.2°F6.2°C 42.6°F5.9°C 98% 3.5 mph W5.6 kmh W 3.5 mph5.6 kmh 29.76 in1007.8 mb - 0.00 in0.0 mm 0.73 in18.5 mm
11:25 PM 43.2°F6.2°C 42.6°F5.9°C 98% 5.8 mph W9.3 kmh W 5.8 mph9.3 kmh 29.76 in1007.8 mb - 0.00 in0.0 mm 0.73 in18.5 mm
11:30 PM 43.2°F6.2°C 42.6°F5.9°C 98% 5.8 mph NE9.3 kmh NE 8.1 mph13.0 kmh 29.75 in1007.5 mb - 0.00 in0.0 mm 0.73 in18.5 mm
11:35 PM 43.2°F6.2°C 42.6°F5.9°C 98% 4.6 mph W7.4 kmh W 5.8 mph9.3 kmh 29.75 in1007.5 mb - 0.00 in0.0 mm 0.73 in18.5 mm
11:40 PM 43.2°F6.2°C 42.6°F5.9°C 98% 4.6 mph NW7.4 kmh NW 5.8 mph9.3 kmh 29.76 in1007.8 mb - 0.00 in0.0 mm 0.73 in18.5 mm
11:45 PM 43.0°F6.1°C 42.5°F5.8°C 98% 5.8 mph NNW9.3 kmh NNW 8.1 mph13.0 kmh 29.76 in1007.8 mb - 0.00 in0.0 mm 0.73 in18.5 mm
11:50 PM 43.0°F6.1°C 42.5°F5.8°C 98% 5.8 mph NW9.3 kmh NW 8.1 mph13.0 kmh 29.76 in1007.8 mb - 0.00 in0.0 mm 0.73 in18.5 mm
11:55 PM 43.0°F6.1°C 42.5°F5.8°C 98% 4.6 mph W7.4 kmh W 5.8 mph9.3 kmh 29.76 in1007.8 mb - 0.00 in0.0 mm 0.73 in18.5 mm